sensor_id;sensor_type;location;lat;lon;timestamp;P1;durP1;ratioP1;P2;durP2;ratioP2
11334;SDS011;5722;42.620;23.374;2022-07-29T00:01:38;9.60;;;8.70;;
11334;SDS011;5722;42.620;23.374;2022-07-29T00:04:07;9.27;;;8.37;;
11334;SDS011;5722;42.620;23.374;2022-07-29T00:06:34;8.57;;;7.77;;
11334;SDS011;5722;42.620;23.374;2022-07-29T00:09:08;9.93;;;8.93;;
11334;SDS011;5722;42.620;23.374;2022-07-29T00:11:36;12.77;;;9.60;;
11334;SDS011;5722;42.620;23.374;2022-07-29T00:14:03;11.27;;;9.90;;
11334;SDS011;5722;42.620;23.374;2022-07-29T00:16:33;11.20;;;10.07;;
11334;SDS011;5722;42.620;23.374;2022-07-29T00:19:00;10.43;;;9.43;;
11334;SDS011;5722;42.620;23.374;2022-07-29T00:24:00;15.77;;;10.40;;
11334;SDS011;5722;42.620;23.374;2022-07-29T00:26:27;11.20;;;10.20;;
11334;SDS011;5722;42.620;23.374;2022-07-29T00:28:59;11.30;;;10.37;;
11334;SDS011;5722;42.620;23.374;2022-07-29T00:31:26;10.85;;;9.90;;
11334;SDS011;5722;42.620;23.374;2022-07-29T00:33:53;13.57;;;10.68;;
11334;SDS011;5722;42.620;23.374;2022-07-29T00:36:20;11.38;;;10.30;;
11334;SDS011;5722;42.620;23.374;2022-07-29T00:38:47;10.52;;;9.48;;
11334;SDS011;5722;42.620;23.374;2022-07-29T00:41:16;11.50;;;10.40;;
11334;SDS011;5722;42.620;23.374;2022-07-29T00:43:43;11.30;;;10.10;;
11334;SDS011;5722;42.620;23.374;2022-07-29T00:46:10;12.77;;;11.43;;
11334;SDS011;5722;42.620;23.374;2022-07-29T00:48:38;11.75;;;10.75;;
11334;SDS011;5722;42.620;23.374;2022-07-29T00:51:05;12.18;;;11.07;;
11334;SDS011;5722;42.620;23.374;2022-07-29T00:53:35;11.38;;;10.23;;
11334;SDS011;5722;42.620;23.374;2022-07-29T00:56:03;10.18;;;9.20;;
11334;SDS011;5722;42.620;23.374;2022-07-29T00:58:32;11.40;;;10.40;;
11334;SDS011;5722;42.620;23.374;2022-07-29T01:00:59;9.57;;;8.57;;
11334;SDS011;5722;42.620;23.374;2022-07-29T01:03:26;12.18;;;9.38;;
11334;SDS011;5722;42.620;23.374;2022-07-29T01:05:53;10.55;;;9.43;;
11334;SDS011;5722;42.620;23.374;2022-07-29T01:08:20;10.38;;;9.38;;
11334;SDS011;5722;42.620;23.374;2022-07-29T01:10:50;10.43;;;9.32;;
11334;SDS011;5722;42.620;23.374;2022-07-29T01:13:17;10.68;;;9.68;;
11334;SDS011;5722;42.620;23.374;2022-07-29T01:15:47;12.75;;;10.15;;
11334;SDS011;5722;42.620;23.374;2022-07-29T01:18:16;17.00;;;10.30;;
11334;SDS011;5722;42.620;23.374;2022-07-29T01:20:52;11.27;;;10.20;;
11334;SDS011;5722;42.620;23.374;2022-07-29T01:26:23;11.30;;;9.80;;
11334;SDS011;5722;42.620;23.374;2022-07-29T01:29:00;10.83;;;9.80;;
11334;SDS011;5722;42.620;23.374;2022-07-29T01:31:32;10.13;;;9.23;;
11334;SDS011;5722;42.620;23.374;2022-07-29T01:34:01;11.23;;;9.77;;
11334;SDS011;5722;42.620;23.374;2022-07-29T01:36:30;10.35;;;9.35;;
11334;SDS011;5722;42.620;23.374;2022-07-29T01:39:02;11.25;;;10.10;;
11334;SDS011;5722;42.620;23.374;2022-07-29T01:41:31;10.85;;;9.15;;
11334;SDS011;5722;42.620;23.374;2022-07-29T01:44:02;10.07;;;9.07;;
11334;SDS011;5722;42.620;23.374;2022-07-29T01:46:35;12.73;;;9.45;;
11334;SDS011;5722;42.620;23.374;2022-07-29T01:49:06;13.13;;;10.23;;
11334;SDS011;5722;42.620;23.374;2022-07-29T01:51:37;11.88;;;9.55;;
11334;SDS011;5722;42.620;23.374;2022-07-29T01:54:08;11.00;;;9.60;;
11334;SDS011;5722;42.620;23.374;2022-07-29T01:56:38;11.43;;;10.32;;
11334;SDS011;5722;42.620;23.374;2022-07-29T01:59:09;11.37;;;10.33;;
11334;SDS011;5722;42.620;23.374;2022-07-29T02:01:37;14.80;;;9.73;;
11334;SDS011;5722;42.620;23.374;2022-07-29T02:04:06;10.93;;;9.90;;
11334;SDS011;5722;42.620;23.374;2022-07-29T02:06:35;10.83;;;9.83;;
11334;SDS011;5722;42.620;23.374;2022-07-29T02:09:04;13.33;;;10.60;;
11334;SDS011;5722;42.620;23.374;2022-07-29T02:11:33;14.83;;;10.97;;
11334;SDS011;5722;42.620;23.374;2022-07-29T02:14:02;11.47;;;10.30;;
11334;SDS011;5722;42.620;23.374;2022-07-29T02:16:32;12.67;;;11.17;;
11334;SDS011;5722;42.620;23.374;2022-07-29T02:19:01;11.23;;;10.15;;
11334;SDS011;5722;42.620;23.374;2022-07-29T02:21:29;11.53;;;10.43;;
11334;SDS011;5722;42.620;23.374;2022-07-29T02:23:58;12.77;;;10.00;;
11334;SDS011;5722;42.620;23.374;2022-07-29T02:26:32;11.57;;;9.50;;
11334;SDS011;5722;42.620;23.374;2022-07-29T02:29:01;11.70;;;9.65;;
11334;SDS011;5722;42.620;23.374;2022-07-29T02:31:30;12.27;;;9.43;;
11334;SDS011;5722;42.620;23.374;2022-07-29T02:33:59;12.30;;;9.23;;
11334;SDS011;5722;42.620;23.374;2022-07-29T02:36:28;10.70;;;9.50;;
11334;SDS011;5722;42.620;23.374;2022-07-29T02:38:56;10.37;;;9.27;;
11334;SDS011;5722;42.620;23.374;2022-07-29T02:41:29;12.90;;;9.25;;
11334;SDS011;5722;42.620;23.374;2022-07-29T02:44:01;9.73;;;8.70;;
11334;SDS011;5722;42.620;23.374;2022-07-29T02:46:30;11.75;;;8.75;;
11334;SDS011;5722;42.620;23.374;2022-07-29T02:48:59;9.00;;;8.10;;
11334;SDS011;5722;42.620;23.374;2022-07-29T02:51:32;8.97;;;7.70;;
11334;SDS011;5722;42.620;23.374;2022-07-29T02:54:01;9.23;;;8.20;;
11334;SDS011;5722;42.620;23.374;2022-07-29T02:56:32;9.35;;;8.27;;
11334;SDS011;5722;42.620;23.374;2022-07-29T02:59:02;9.88;;;7.68;;
11334;SDS011;5722;42.620;23.374;2022-07-29T03:01:30;9.70;;;7.90;;
11334;SDS011;5722;42.620;23.374;2022-07-29T03:04:00;8.65;;;7.95;;
11334;SDS011;5722;42.620;23.374;2022-07-29T03:06:30;9.30;;;7.78;;
11334;SDS011;5722;42.620;23.374;2022-07-29T03:09:00;9.13;;;8.10;;
11334;SDS011;5722;42.620;23.374;2022-07-29T03:11:28;8.68;;;7.65;;
11334;SDS011;5722;42.620;23.374;2022-07-29T03:13:56;9.88;;;7.70;;
11334;SDS011;5722;42.620;23.374;2022-07-29T03:16:24;8.73;;;7.82;;
11334;SDS011;5722;42.620;23.374;2022-07-29T03:18:52;9.80;;;8.13;;
11334;SDS011;5722;42.620;23.374;2022-07-29T03:21:21;9.85;;;8.20;;
11334;SDS011;5722;42.620;23.374;2022-07-29T03:23:50;9.25;;;7.95;;
11334;SDS011;5722;42.620;23.374;2022-07-29T03:26:19;8.60;;;7.82;;
11334;SDS011;5722;42.620;23.374;2022-07-29T03:28:46;8.70;;;7.85;;
11334;SDS011;5722;42.620;23.374;2022-07-29T03:31:14;9.93;;;8.02;;
11334;SDS011;5722;42.620;23.374;2022-07-29T03:33:41;12.38;;;8.38;;
11334;SDS011;5722;42.620;23.374;2022-07-29T03:36:08;9.00;;;8.00;;
11334;SDS011;5722;42.620;23.374;2022-07-29T03:38:35;8.57;;;7.88;;
11334;SDS011;5722;42.620;23.374;2022-07-29T03:41:05;8.70;;;8.00;;
11334;SDS011;5722;42.620;23.374;2022-07-29T03:43:34;8.85;;;8.05;;
11334;SDS011;5722;42.620;23.374;2022-07-29T03:46:08;9.80;;;7.85;;
11334;SDS011;5722;42.620;23.374;2022-07-29T03:48:39;9.25;;;8.40;;
11334;SDS011;5722;42.620;23.374;2022-07-29T03:51:10;8.98;;;8.18;;
11334;SDS011;5722;42.620;23.374;2022-07-29T03:53:39;10.10;;;8.10;;
11334;SDS011;5722;42.620;23.374;2022-07-29T03:56:08;9.93;;;7.97;;
11334;SDS011;5722;42.620;23.374;2022-07-29T03:58:36;9.07;;;8.25;;
11334;SDS011;5722;42.620;23.374;2022-07-29T04:06:14;9.35;;;7.82;;
11334;SDS011;5722;42.620;23.374;2022-07-29T04:08:42;10.48;;;8.13;;
11334;SDS011;5722;42.620;23.374;2022-07-29T04:11:11;9.13;;;8.23;;
11334;SDS011;5722;42.620;23.374;2022-07-29T04:13:43;11.20;;;8.27;;
11334;SDS011;5722;42.620;23.374;2022-07-29T04:29:15;8.10;;;7.38;;
11334;SDS011;5722;42.620;23.374;2022-07-29T04:31:50;7.85;;;7.05;;
11334;SDS011;5722;42.620;23.374;2022-07-29T04:34:23;11.25;;;7.00;;
11334;SDS011;5722;42.620;23.374;2022-07-29T04:39:37;7.35;;;6.65;;
11334;SDS011;5722;42.620;23.374;2022-07-29T04:42:06;9.20;;;6.72;;
11334;SDS011;5722;42.620;23.374;2022-07-29T04:44:39;8.40;;;6.68;;
11334;SDS011;5722;42.620;23.374;2022-07-29T04:49:47;8.80;;;6.78;;
11334;SDS011;5722;42.620;23.374;2022-07-29T05:00:06;7.75;;;6.28;;
11334;SDS011;5722;42.620;23.374;2022-07-29T05:02:36;7.53;;;6.72;;
11334;SDS011;5722;42.620;23.374;2022-07-29T05:05:07;7.63;;;6.38;;
11334;SDS011;5722;42.620;23.374;2022-07-29T05:07:35;8.98;;;7.05;;
11334;SDS011;5722;42.620;23.374;2022-07-29T05:10:02;6.93;;;6.38;;
11334;SDS011;5722;42.620;23.374;2022-07-29T05:12:31;7.30;;;6.55;;
11334;SDS011;5722;42.620;23.374;2022-07-29T05:14:59;7.97;;;6.38;;
11334;SDS011;5722;42.620;23.374;2022-07-29T05:17:28;6.90;;;6.30;;
11334;SDS011;5722;42.620;23.374;2022-07-29T05:19:56;14.25;;;6.45;;
11334;SDS011;5722;42.620;23.374;2022-07-29T05:22:23;6.50;;;5.85;;
11334;SDS011;5722;42.620;23.374;2022-07-29T05:24:52;7.75;;;6.55;;
11334;SDS011;5722;42.620;23.374;2022-07-29T05:27:23;7.30;;;6.47;;
11334;SDS011;5722;42.620;23.374;2022-07-29T05:29:54;6.50;;;5.88;;
11334;SDS011;5722;42.620;23.374;2022-07-29T05:32:21;7.95;;;6.18;;
11334;SDS011;5722;42.620;23.374;2022-07-29T05:34:51;10.18;;;6.32;;
11334;SDS011;5722;42.620;23.374;2022-07-29T05:37:18;6.82;;;6.13;;
11334;SDS011;5722;42.620;23.374;2022-07-29T05:39:45;8.57;;;6.60;;
11334;SDS011;5722;42.620;23.374;2022-07-29T05:42:13;8.30;;;6.40;;
11334;SDS011;5722;42.620;23.374;2022-07-29T05:44:39;9.50;;;6.80;;
11334;SDS011;5722;42.620;23.374;2022-07-29T05:47:06;7.70;;;6.43;;
11334;SDS011;5722;42.620;23.374;2022-07-29T05:49:34;8.90;;;6.63;;
11334;SDS011;5722;42.620;23.374;2022-07-29T05:52:02;7.25;;;6.55;;
11334;SDS011;5722;42.620;23.374;2022-07-29T05:54:29;7.90;;;6.78;;
11334;SDS011;5722;42.620;23.374;2022-07-29T05:56:55;7.90;;;6.63;;
11334;SDS011;5722;42.620;23.374;2022-07-29T05:59:22;8.13;;;6.72;;
11334;SDS011;5722;42.620;23.374;2022-07-29T06:01:49;7.25;;;6.60;;
11334;SDS011;5722;42.620;23.374;2022-07-29T06:04:16;6.63;;;6.10;;
11334;SDS011;5722;42.620;23.374;2022-07-29T06:06:44;6.65;;;6.00;;
11334;SDS011;5722;42.620;23.374;2022-07-29T06:09:13;7.85;;;6.07;;
11334;SDS011;5722;42.620;23.374;2022-07-29T06:11:40;6.40;;;5.70;;
11334;SDS011;5722;42.620;23.374;2022-07-29T06:14:07;7.00;;;6.28;;
11334;SDS011;5722;42.620;23.374;2022-07-29T06:16:36;6.80;;;6.10;;
11334;SDS011;5722;42.620;23.374;2022-07-29T06:19:03;7.15;;;5.72;;
11334;SDS011;5722;42.620;23.374;2022-07-29T06:21:32;8.77;;;6.13;;
11334;SDS011;5722;42.620;23.374;2022-07-29T06:23:59;9.55;;;6.85;;
11334;SDS011;5722;42.620;23.374;2022-07-29T06:26:27;7.03;;;6.32;;
11334;SDS011;5722;42.620;23.374;2022-07-29T06:28:57;8.88;;;6.63;;
11334;SDS011;5722;42.620;23.374;2022-07-29T06:31:25;7.07;;;6.20;;
11334;SDS011;5722;42.620;23.374;2022-07-29T06:33:52;7.47;;;6.68;;
11334;SDS011;5722;42.620;23.374;2022-07-29T06:36:19;6.80;;;6.10;;
11334;SDS011;5722;42.620;23.374;2022-07-29T06:38:48;8.40;;;6.50;;
11334;SDS011;5722;42.620;23.374;2022-07-29T06:41:15;9.25;;;6.88;;
11334;SDS011;5722;42.620;23.374;2022-07-29T06:43:44;7.90;;;7.10;;
11334;SDS011;5722;42.620;23.374;2022-07-29T06:46:13;9.95;;;7.47;;
11334;SDS011;5722;42.620;23.374;2022-07-29T06:48:41;8.57;;;7.68;;
11334;SDS011;5722;42.620;23.374;2022-07-29T06:51:09;10.07;;;7.47;;
11334;SDS011;5722;42.620;23.374;2022-07-29T06:53:43;9.07;;;7.00;;
11334;SDS011;5722;42.620;23.374;2022-07-29T06:56:10;11.63;;;7.18;;
11334;SDS011;5722;42.620;23.374;2022-07-29T06:58:39;10.77;;;6.32;;
11334;SDS011;5722;42.620;23.374;2022-07-29T07:01:15;6.90;;;6.30;;
11334;SDS011;5722;42.620;23.374;2022-07-29T07:03:42;6.30;;;5.70;;
11334;SDS011;5722;42.620;23.374;2022-07-29T07:09:11;7.88;;;5.55;;
11334;SDS011;5722;42.620;23.374;2022-07-29T07:11:37;6.10;;;5.47;;
11334;SDS011;5722;42.620;23.374;2022-07-29T07:14:07;7.55;;;5.57;;
11334;SDS011;5722;42.620;23.374;2022-07-29T07:16:35;9.43;;;5.75;;
11334;SDS011;5722;42.620;23.374;2022-07-29T07:19:05;5.88;;;5.30;;
11334;SDS011;5722;42.620;23.374;2022-07-29T07:21:32;6.38;;;5.43;;
11334;SDS011;5722;42.620;23.374;2022-07-29T07:24:13;6.32;;;5.57;;
11334;SDS011;5722;42.620;23.374;2022-07-29T07:26:40;6.00;;;5.40;;
11334;SDS011;5722;42.620;23.374;2022-07-29T07:32:16;6.03;;;5.43;;
11334;SDS011;5722;42.620;23.374;2022-07-29T07:34:44;7.18;;;4.47;;
11334;SDS011;5722;42.620;23.374;2022-07-29T07:37:13;7.95;;;4.80;;
11334;SDS011;5722;42.620;23.374;2022-07-29T07:39:47;5.80;;;4.35;;
11334;SDS011;5722;42.620;23.374;2022-07-29T07:42:14;5.85;;;4.18;;
11334;SDS011;5722;42.620;23.374;2022-07-29T07:44:56;4.80;;;4.32;;
11334;SDS011;5722;42.620;23.374;2022-07-29T07:47:27;6.55;;;4.00;;
11334;SDS011;5722;42.620;23.374;2022-07-29T07:49:55;6.28;;;4.38;;
11334;SDS011;5722;42.620;23.374;2022-07-29T07:52:21;4.45;;;4.05;;
11334;SDS011;5722;42.620;23.374;2022-07-29T07:54:48;9.73;;;4.47;;
11334;SDS011;5722;42.620;23.374;2022-07-29T08:00:18;6.68;;;4.00;;
11334;SDS011;5722;42.620;23.374;2022-07-29T08:02:52;6.82;;;3.80;;
11334;SDS011;5722;42.620;23.374;2022-07-29T08:05:22;4.40;;;4.03;;
11334;SDS011;5722;42.620;23.374;2022-07-29T08:08:03;8.45;;;3.80;;
11334;SDS011;5722;42.620;23.374;2022-07-29T08:35:31;3.83;;;3.53;;
11334;SDS011;5722;42.620;23.374;2022-07-29T08:38:03;4.00;;;3.60;;
11334;SDS011;5722;42.620;23.374;2022-07-29T08:40:33;4.43;;;3.88;;
11334;SDS011;5722;42.620;23.374;2022-07-29T08:43:09;4.57;;;3.47;;
11334;SDS011;5722;42.620;23.374;2022-07-29T08:48:46;4.47;;;3.40;;
11334;SDS011;5722;42.620;23.374;2022-07-29T08:51:14;7.55;;;3.83;;
11334;SDS011;5722;42.620;23.374;2022-07-29T08:53:45;5.57;;;3.67;;
11334;SDS011;5722;42.620;23.374;2022-07-29T08:56:23;5.07;;;3.70;;
11334;SDS011;5722;42.620;23.374;2022-07-29T09:01:46;4.43;;;3.70;;
11334;SDS011;5722;42.620;23.374;2022-07-29T09:04:16;3.95;;;3.65;;
11334;SDS011;5722;42.620;23.374;2022-07-29T09:30:29;6.18;;;4.28;;
11334;SDS011;5722;42.620;23.374;2022-07-29T09:35:32;4.50;;;4.10;;
11334;SDS011;5722;42.620;23.374;2022-07-29T09:49:59;4.40;;;4.07;;
11334;SDS011;5722;42.620;23.374;2022-07-29T09:52:44;5.18;;;4.00;;
11334;SDS011;5722;42.620;23.374;2022-07-29T09:58:16;4.82;;;4.38;;
11334;SDS011;5722;42.620;23.374;2022-07-29T10:03:55;4.85;;;4.15;;
11334;SDS011;5722;42.620;23.374;2022-07-29T10:09:51;4.20;;;3.88;;
11334;SDS011;5722;42.620;23.374;2022-07-29T10:12:19;5.22;;;4.10;;
11334;SDS011;5722;42.620;23.374;2022-07-29T10:17:21;5.07;;;4.10;;
11334;SDS011;5722;42.620;23.374;2022-07-29T10:19:49;5.20;;;3.78;;
11334;SDS011;5722;42.620;23.374;2022-07-29T10:22:16;4.43;;;4.03;;
11334;SDS011;5722;42.620;23.374;2022-07-29T10:24:43;4.40;;;3.80;;
11334;SDS011;5722;42.620;23.374;2022-07-29T10:27:15;4.10;;;3.70;;
11334;SDS011;5722;42.620;23.374;2022-07-29T10:29:42;3.92;;;3.60;;
11334;SDS011;5722;42.620;23.374;2022-07-29T10:35:12;4.32;;;3.90;;
11334;SDS011;5722;42.620;23.374;2022-07-29T10:37:49;4.43;;;3.60;;
11334;SDS011;5722;42.620;23.374;2022-07-29T10:40:22;3.45;;;3.25;;
11334;SDS011;5722;42.620;23.374;2022-07-29T10:43:16;4.80;;;4.25;;
11334;SDS011;5722;42.620;23.374;2022-07-29T10:45:44;4.57;;;3.72;;
11334;SDS011;5722;42.620;23.374;2022-07-29T10:48:12;4.75;;;3.90;;
11334;SDS011;5722;42.620;23.374;2022-07-29T10:50:53;3.95;;;3.55;;
11334;SDS011;5722;42.620;23.374;2022-07-29T10:53:20;4.28;;;3.88;;
11334;SDS011;5722;42.620;23.374;2022-07-29T10:55:47;4.05;;;3.30;;
11334;SDS011;5722;42.620;23.374;2022-07-29T10:58:18;4.43;;;3.40;;
11334;SDS011;5722;42.620;23.374;2022-07-29T11:00:46;3.67;;;3.38;;
11334;SDS011;5722;42.620;23.374;2022-07-29T11:06:15;4.28;;;3.42;;
11334;SDS011;5722;42.620;23.374;2022-07-29T11:08:42;5.63;;;3.45;;
11334;SDS011;5722;42.620;23.374;2022-07-29T11:14:08;7.35;;;4.05;;
11334;SDS011;5722;42.620;23.374;2022-07-29T11:19:21;5.22;;;3.60;;
11334;SDS011;5722;42.620;23.374;2022-07-29T11:21:48;4.05;;;3.60;;
11334;SDS011;5722;42.620;23.374;2022-07-29T11:24:17;5.32;;;3.63;;
11334;SDS011;5722;42.620;23.374;2022-07-29T11:26:45;5.03;;;3.58;;
11334;SDS011;5722;42.620;23.374;2022-07-29T11:29:34;3.75;;;3.45;;
11334;SDS011;5722;42.620;23.374;2022-07-29T11:32:08;4.20;;;3.90;;
11334;SDS011;5722;42.620;23.374;2022-07-29T11:34:36;4.43;;;3.80;;
11334;SDS011;5722;42.620;23.374;2022-07-29T11:37:18;5.30;;;3.90;;
11334;SDS011;5722;42.620;23.374;2022-07-29T11:42:53;7.25;;;3.55;;
11334;SDS011;5722;42.620;23.374;2022-07-29T11:48:34;4.07;;;3.65;;
11334;SDS011;5722;42.620;23.374;2022-07-29T11:51:17;5.07;;;3.65;;
11334;SDS011;5722;42.620;23.374;2022-07-29T11:53:46;3.90;;;3.50;;
11334;SDS011;5722;42.620;23.374;2022-07-29T11:56:13;3.80;;;3.50;;
11334;SDS011;5722;42.620;23.374;2022-07-29T11:58:41;4.40;;;3.95;;
11334;SDS011;5722;42.620;23.374;2022-07-29T12:01:12;4.63;;;4.20;;
11334;SDS011;5722;42.620;23.374;2022-07-29T12:03:41;5.00;;;4.22;;
11334;SDS011;5722;42.620;23.374;2022-07-29T12:06:13;4.43;;;4.03;;
11334;SDS011;5722;42.620;23.374;2022-07-29T12:08:42;3.90;;;3.47;;
11334;SDS011;5722;42.620;23.374;2022-07-29T12:11:16;5.28;;;3.80;;
11334;SDS011;5722;42.620;23.374;2022-07-29T12:13:43;4.50;;;4.10;;
11334;SDS011;5722;42.620;23.374;2022-07-29T12:16:10;6.03;;;4.22;;
11334;SDS011;5722;42.620;23.374;2022-07-29T12:18:37;4.60;;;4.30;;
11334;SDS011;5722;42.620;23.374;2022-07-29T12:21:05;4.75;;;4.30;;
11334;SDS011;5722;42.620;23.374;2022-07-29T12:23:33;4.80;;;4.40;;
11334;SDS011;5722;42.620;23.374;2022-07-29T12:26:00;4.30;;;4.00;;
11334;SDS011;5722;42.620;23.374;2022-07-29T12:28:27;6.63;;;4.38;;
11334;SDS011;5722;42.620;23.374;2022-07-29T12:30:54;4.43;;;4.13;;
11334;SDS011;5722;42.620;23.374;2022-07-29T12:33:21;4.65;;;4.20;;
11334;SDS011;5722;42.620;23.374;2022-07-29T12:35:49;6.22;;;4.57;;
11334;SDS011;5722;42.620;23.374;2022-07-29T12:38:17;6.60;;;4.22;;
11334;SDS011;5722;42.620;23.374;2022-07-29T12:40:45;4.47;;;4.07;;
11334;SDS011;5722;42.620;23.374;2022-07-29T12:43:13;5.38;;;4.60;;
11334;SDS011;5722;42.620;23.374;2022-07-29T12:45:42;4.95;;;4.40;;
11334;SDS011;5722;42.620;23.374;2022-07-29T12:48:09;5.45;;;4.80;;
11334;SDS011;5722;42.620;23.374;2022-07-29T12:50:36;4.80;;;4.40;;
11334;SDS011;5722;42.620;23.374;2022-07-29T12:53:10;4.78;;;4.38;;
11334;SDS011;5722;42.620;23.374;2022-07-29T12:55:39;4.82;;;4.40;;
11334;SDS011;5722;42.620;23.374;2022-07-29T12:58:05;6.15;;;4.18;;
11334;SDS011;5722;42.620;23.374;2022-07-29T13:00:32;5.50;;;4.57;;
11334;SDS011;5722;42.620;23.374;2022-07-29T13:02:59;4.70;;;4.30;;
11334;SDS011;5722;42.620;23.374;2022-07-29T13:05:38;4.82;;;4.40;;
11334;SDS011;5722;42.620;23.374;2022-07-29T13:08:12;5.20;;;4.70;;
11334;SDS011;5722;42.620;23.374;2022-07-29T13:10:41;9.25;;;4.50;;
11334;SDS011;5722;42.620;23.374;2022-07-29T13:13:08;4.53;;;4.20;;
11334;SDS011;5722;42.620;23.374;2022-07-29T13:15:35;5.05;;;4.47;;
11334;SDS011;5722;42.620;23.374;2022-07-29T13:18:04;10.02;;;4.50;;
11334;SDS011;5722;42.620;23.374;2022-07-29T13:20:31;4.70;;;4.30;;
11334;SDS011;5722;42.620;23.374;2022-07-29T13:23:01;4.72;;;4.32;;
11334;SDS011;5722;42.620;23.374;2022-07-29T13:25:28;7.22;;;4.53;;
11334;SDS011;5722;42.620;23.374;2022-07-29T13:27:58;5.55;;;4.22;;
11334;SDS011;5722;42.620;23.374;2022-07-29T13:30:28;8.50;;;4.20;;
11334;SDS011;5722;42.620;23.374;2022-07-29T13:32:55;5.30;;;4.10;;
11334;SDS011;5722;42.620;23.374;2022-07-29T13:35:22;4.78;;;4.18;;
11334;SDS011;5722;42.620;23.374;2022-07-29T13:37:48;4.68;;;4.28;;
11334;SDS011;5722;42.620;23.374;2022-07-29T13:40:15;4.85;;;4.45;;
11334;SDS011;5722;42.620;23.374;2022-07-29T13:42:42;4.80;;;4.40;;
11334;SDS011;5722;42.620;23.374;2022-07-29T13:45:11;5.53;;;3.72;;
11334;SDS011;5722;42.620;23.374;2022-07-29T13:47:38;5.30;;;4.80;;
11334;SDS011;5722;42.620;23.374;2022-07-29T13:50:05;4.63;;;4.10;;
11334;SDS011;5722;42.620;23.374;2022-07-29T13:52:43;4.10;;;3.72;;
11334;SDS011;5722;42.620;23.374;2022-07-29T13:55:13;3.97;;;3.67;;
11334;SDS011;5722;42.620;23.374;2022-07-29T13:57:39;3.92;;;3.50;;
11334;SDS011;5722;42.620;23.374;2022-07-29T14:00:07;5.15;;;3.75;;
11334;SDS011;5722;42.620;23.374;2022-07-29T14:02:35;4.43;;;4.03;;
11334;SDS011;5722;42.620;23.374;2022-07-29T14:05:03;4.93;;;4.40;;
11334;SDS011;5722;42.620;23.374;2022-07-29T14:07:31;5.03;;;3.80;;
11334;SDS011;5722;42.620;23.374;2022-07-29T14:09:57;3.83;;;3.53;;
11334;SDS011;5722;42.620;23.374;2022-07-29T14:12:24;7.82;;;3.80;;
11334;SDS011;5722;42.620;23.374;2022-07-29T14:14:51;4.63;;;4.22;;
11334;SDS011;5722;42.620;23.374;2022-07-29T14:17:18;4.18;;;3.88;;
11334;SDS011;5722;42.620;23.374;2022-07-29T14:19:47;4.10;;;3.65;;
11334;SDS011;5722;42.620;23.374;2022-07-29T14:22:14;4.85;;;3.70;;
11334;SDS011;5722;42.620;23.374;2022-07-29T14:24:40;4.90;;;3.72;;
11334;SDS011;5722;42.620;23.374;2022-07-29T14:27:08;4.72;;;4.30;;
11334;SDS011;5722;42.620;23.374;2022-07-29T14:29:34;4.47;;;4.10;;
11334;SDS011;5722;42.620;23.374;2022-07-29T14:32:01;4.50;;;4.10;;
11334;SDS011;5722;42.620;23.374;2022-07-29T14:34:28;4.18;;;3.78;;
11334;SDS011;5722;42.620;23.374;2022-07-29T14:36:57;4.57;;;4.18;;
11334;SDS011;5722;42.620;23.374;2022-07-29T14:39:24;4.65;;;3.85;;
11334;SDS011;5722;42.620;23.374;2022-07-29T14:41:51;4.97;;;4.20;;
11334;SDS011;5722;42.620;23.374;2022-07-29T14:44:18;4.72;;;4.25;;
11334;SDS011;5722;42.620;23.374;2022-07-29T14:46:44;6.03;;;4.20;;
11334;SDS011;5722;42.620;23.374;2022-07-29T14:49:12;4.28;;;3.55;;
11334;SDS011;5722;42.620;23.374;2022-07-29T14:51:38;4.55;;;4.10;;
11334;SDS011;5722;42.620;23.374;2022-07-29T14:54:07;4.30;;;3.90;;
11334;SDS011;5722;42.620;23.374;2022-07-29T14:56:34;4.57;;;3.60;;
11334;SDS011;5722;42.620;23.374;2022-07-29T14:59:00;4.57;;;4.18;;
11334;SDS011;5722;42.620;23.374;2022-07-29T15:01:28;4.38;;;4.03;;
11334;SDS011;5722;42.620;23.374;2022-07-29T15:03:55;4.80;;;4.40;;
11334;SDS011;5722;42.620;23.374;2022-07-29T15:06:22;4.80;;;4.30;;
11334;SDS011;5722;42.620;23.374;2022-07-29T15:08:48;4.35;;;3.95;;
11334;SDS011;5722;42.620;23.374;2022-07-29T15:11:17;5.78;;;3.95;;
11334;SDS011;5722;42.620;23.374;2022-07-29T15:13:43;4.25;;;3.80;;
11334;SDS011;5722;42.620;23.374;2022-07-29T15:16:10;4.70;;;3.88;;
11334;SDS011;5722;42.620;23.374;2022-07-29T15:18:37;4.45;;;3.88;;
11334;SDS011;5722;42.620;23.374;2022-07-29T15:21:04;5.07;;;3.67;;
11334;SDS011;5722;42.620;23.374;2022-07-29T15:23:32;5.78;;;3.55;;
11334;SDS011;5722;42.620;23.374;2022-07-29T15:26:00;4.00;;;3.70;;
11334;SDS011;5722;42.620;23.374;2022-07-29T15:28:28;4.88;;;3.67;;
11334;SDS011;5722;42.620;23.374;2022-07-29T15:30:55;4.82;;;3.55;;
11334;SDS011;5722;42.620;23.374;2022-07-29T15:33:22;6.97;;;3.97;;
11334;SDS011;5722;42.620;23.374;2022-07-29T15:35:48;3.95;;;3.63;;
11334;SDS011;5722;42.620;23.374;2022-07-29T15:38:15;3.83;;;3.45;;
11334;SDS011;5722;42.620;23.374;2022-07-29T15:40:43;5.97;;;3.58;;
11334;SDS011;5722;42.620;23.374;2022-07-29T15:43:11;4.30;;;3.85;;
11334;SDS011;5722;42.620;23.374;2022-07-29T15:45:40;4.03;;;3.60;;
11334;SDS011;5722;42.620;23.374;2022-07-29T15:48:27;6.40;;;3.70;;
11334;SDS011;5722;42.620;23.374;2022-07-29T15:50:54;4.13;;;3.72;;
11334;SDS011;5722;42.620;23.374;2022-07-29T15:53:21;4.05;;;3.67;;
11334;SDS011;5722;42.620;23.374;2022-07-29T15:55:47;5.80;;;4.10;;
11334;SDS011;5722;42.620;23.374;2022-07-29T15:58:14;4.25;;;3.85;;
11334;SDS011;5722;42.620;23.374;2022-07-29T16:00:42;5.25;;;4.28;;
11334;SDS011;5722;42.620;23.374;2022-07-29T16:03:09;4.45;;;4.05;;
11334;SDS011;5722;42.620;23.374;2022-07-29T16:05:36;4.30;;;3.90;;
11334;SDS011;5722;42.620;23.374;2022-07-29T16:08:02;6.47;;;4.10;;
11334;SDS011;5722;42.620;23.374;2022-07-29T16:10:30;5.72;;;4.47;;
11334;SDS011;5722;42.620;23.374;2022-07-29T16:12:57;4.00;;;3.70;;
11334;SDS011;5722;42.620;23.374;2022-07-29T16:15:24;8.82;;;4.18;;
11334;SDS011;5722;42.620;23.374;2022-07-29T16:17:52;5.18;;;4.20;;
11334;SDS011;5722;42.620;23.374;2022-07-29T16:20:19;4.40;;;4.00;;
11334;SDS011;5722;42.620;23.374;2022-07-29T16:22:46;6.82;;;3.83;;
11334;SDS011;5722;42.620;23.374;2022-07-29T16:25:13;4.75;;;4.25;;
11334;SDS011;5722;42.620;23.374;2022-07-29T16:27:39;5.30;;;3.97;;
11334;SDS011;5722;42.620;23.374;2022-07-29T16:30:07;4.78;;;4.32;;
11334;SDS011;5722;42.620;23.374;2022-07-29T16:32:34;6.47;;;4.22;;
11334;SDS011;5722;42.620;23.374;2022-07-29T16:35:02;5.13;;;4.50;;
11334;SDS011;5722;42.620;23.374;2022-07-29T16:37:29;4.35;;;4.00;;
11334;SDS011;5722;42.620;23.374;2022-07-29T16:39:59;4.20;;;3.88;;
11334;SDS011;5722;42.620;23.374;2022-07-29T16:42:26;7.22;;;4.53;;
11334;SDS011;5722;42.620;23.374;2022-07-29T16:44:53;15.98;;;14.40;;
11334;SDS011;5722;42.620;23.374;2022-07-29T16:47:20;12.13;;;10.90;;
11334;SDS011;5722;42.620;23.374;2022-07-29T16:49:46;22.70;;;18.35;;
11334;SDS011;5722;42.620;23.374;2022-07-29T16:52:14;6.75;;;6.15;;
11334;SDS011;5722;42.620;23.374;2022-07-29T16:54:41;22.83;;;20.27;;
11334;SDS011;5722;42.620;23.374;2022-07-29T16:57:08;41.30;;;35.38;;
11334;SDS011;5722;42.620;23.374;2022-07-29T16:59:36;54.53;;;48.70;;
11334;SDS011;5722;42.620;23.374;2022-07-29T17:02:02;18.55;;;16.15;;
11334;SDS011;5722;42.620;23.374;2022-07-29T17:04:31;14.48;;;12.25;;
11334;SDS011;5722;42.620;23.374;2022-07-29T17:06:58;7.85;;;7.07;;
11334;SDS011;5722;42.620;23.374;2022-07-29T17:09:26;9.25;;;6.18;;
11334;SDS011;5722;42.620;23.374;2022-07-29T17:11:53;5.30;;;4.78;;
11334;SDS011;5722;42.620;23.374;2022-07-29T17:14:20;5.38;;;4.88;;
11334;SDS011;5722;42.620;23.374;2022-07-29T17:16:47;5.00;;;4.60;;
11334;SDS011;5722;42.620;23.374;2022-07-29T17:19:13;5.47;;;4.93;;